Time;durP1;ratioP1;P1;durP2;ratioP2;P2;SDS_P1;SDS_P2;PMS_P1;PMS_P2;Temp;Humidity;BMP_temperature;BMP_pressure;BME280_temperature;BME280_humidity;BME280_pressure;Samples;Min_cycle;Max_cycle;Signal;HPM_P1;HPM_P2
2023/01/28 00:01:45;;;;;;;27.00;17.70;;;;;;;-3.19;96.01;96944.21;109497;1271;25236;-78
2023/01/28 00:04:17;;;;;;;27.30;17.50;;;;;;;-3.21;95.81;96943.53;109440;1267;23687;-78
2023/01/28 00:06:48;;;;;;;26.90;17.30;;;;;;;-3.23;95.86;96937.95;109509;1266;24022;-78
2023/01/28 00:09:19;;;;;;;25.60;16.20;;;;;;;-3.25;95.88;96940.79;109519;1267;22522;-78
2023/01/28 00:11:50;;;;;;;28.40;17.90;;;;;;;-3.25;95.94;96938.36;109420;1270;22758;-78
2023/01/28 00:14:21;;;;;;;33.80;19.00;;;;;;;-3.26;96.05;96939.82;109458;1254;22525;-78
2023/01/28 00:16:55;;;;;;;30.60;19.00;;;;;;;-3.26;96.07;96937.03;109358;1248;26477;-78
2023/01/28 00:19:31;;;;;;;28.40;17.60;;;;;;;-3.26;96.11;96937.98;109423;1270;22534;-78
2023/01/28 00:22:05;;;;;;;29.40;18.50;;;;;;;-3.29;96.14;96940.31;109404;1270;22557;-78
2023/01/28 00:24:36;;;;;;;32.20;19.00;;;;;;;-3.30;96.04;96936.70;109454;1270;22551;-78
2023/01/28 00:27:07;;;;;;;30.50;18.20;;;;;;;-3.30;96.30;96936.80;109515;1270;23564;-78
2023/01/28 00:29:41;;;;;;;28.10;17.90;;;;;;;-3.30;96.29;96940.75;109524;1270;22510;-78
2023/01/28 00:32:12;;;;;;;30.90;19.00;;;;;;;-3.29;96.46;96940.31;109501;1270;22673;-78
2023/01/28 00:34:43;;;;;;;31.70;18.40;;;;;;;-3.28;96.53;96937.33;109533;1270;23093;-78
2023/01/28 00:37:14;;;;;;;31.40;17.40;;;;;;;-3.29;96.38;96938.44;109052;1270;22525;-77
2023/01/28 00:39:45;;;;;;;29.60;18.10;;;;;;;-3.31;96.61;96942.10;109505;1270;23983;-77
2023/01/28 00:42:16;;;;;;;29.30;18.40;;;;;;;-3.31;96.45;96943.41;109179;1270;23068;-78
2023/01/28 00:44:47;;;;;;;30.60;18.70;;;;;;;-3.30;96.77;96945.17;109370;1270;22518;-77
2023/01/28 00:47:18;;;;;;;29.20;17.10;;;;;;;-3.29;96.59;96944.30;109474;1270;24206;-78
2023/01/28 00:49:49;;;;;;;31.90;18.60;;;;;;;-3.31;96.83;96944.69;109185;1267;22736;-77
2023/01/28 00:52:20;;;;;;;30.30;17.40;;;;;;;-3.32;96.89;96944.16;109183;1270;24238;-77
2023/01/28 00:54:50;;;;;;;30.10;19.60;;;;;;;-3.33;96.87;96944.07;109056;1267;22513;-77
2023/01/28 00:57:24;;;;;;;32.30;19.00;;;;;;;-3.33;96.72;96946.14;109076;1271;22532;-77
2023/01/28 00:59:55;;;;;;;31.10;18.50;;;;;;;-3.35;96.84;96950.79;109087;1270;25191;-77
2023/01/28 01:02:26;;;;;;;30.50;18.60;;;;;;;-3.38;97.14;96953.36;109219;1264;22514;-77
2023/01/28 01:05:00;;;;;;;30.10;18.60;;;;;;;-3.39;96.95;96951.17;109211;1267;22509;-77
2023/01/28 01:07:33;;;;;;;35.10;19.10;;;;;;;-3.42;96.93;96953.96;109204;1268;26545;-77
2023/01/28 01:10:05;;;;;;;30.50;18.30;;;;;;;-3.42;97.08;96954.88;109496;1270;22518;-78
2023/01/28 01:12:36;;;;;;;26.40;16.80;;;;;;;-3.41;97.33;96955.41;109233;1270;22517;-77
2023/01/28 01:15:09;;;;;;;32.20;19.20;;;;;;;-3.43;97.34;96956.58;109053;1267;22567;-78
2023/01/28 01:17:49;;;;;;;31.20;18.90;;;;;;;-3.45;97.25;96954.02;109208;1270;22541;-78
2023/01/28 01:20:23;;;;;;;33.00;21.10;;;;;;;-3.44;97.43;96954.45;109482;1271;22631;-77
2023/01/28 01:22:54;;;;;;;30.30;18.10;;;;;;;-3.42;97.68;96952.64;109634;1264;23879;-77
2023/01/28 01:25:25;;;;;;;31.80;19.50;;;;;;;-3.40;97.74;96954.23;109390;1267;22528;-77
2023/01/28 01:27:56;;;;;;;29.80;18.70;;;;;;;-3.37;97.71;96957.55;109487;1270;22521;-77
2023/01/28 01:30:27;;;;;;;33.70;21.10;;;;;;;-3.34;97.88;96951.48;109537;1254;22542;-77
2023/01/28 01:32:58;;;;;;;33.20;20.40;;;;;;;-3.32;97.73;96947.98;109524;1270;22532;-77
2023/01/28 01:35:29;;;;;;;28.30;17.80;;;;;;;-3.32;97.71;96949.89;108970;1271;22535;-78
2023/01/28 01:38:00;;;;;;;28.80;17.60;;;;;;;-3.32;97.87;96951.96;109125;1270;24964;-77
2023/01/28 01:40:31;;;;;;;31.10;19.90;;;;;;;-3.37;97.57;96951.13;109237;1270;22517;-77
2023/01/28 01:43:09;;;;;;;32.60;20.00;;;;;;;-3.44;97.65;96952.31;109117;1270;22651;-77
2023/01/28 01:45:40;;;;;;;33.20;20.10;;;;;;;-3.48;97.69;96951.11;109163;1270;24391;-78
2023/01/28 01:48:17;;;;;;;34.00;20.50;;;;;;;-3.48;97.81;96950.56;109212;1263;24206;-77
2023/01/28 01:50:54;;;;;;;36.50;21.40;;;;;;;-3.48;97.91;96949.71;109252;1270;22515;-77
2023/01/28 01:53:28;;;;;;;34.70;21.00;;;;;;;-3.46;98.06;96949.02;109230;1270;22526;-77
2023/01/28 01:56:03;;;;;;;34.40;20.60;;;;;;;-3.43;98.14;96953.15;109217;1264;22560;-77
2023/01/28 01:58:39;;;;;;;34.00;20.80;;;;;;;-3.41;98.05;96951.06;109238;1270;22749;-77
2023/01/28 02:01:11;;;;;;;33.30;19.20;;;;;;;-3.39;98.07;96951.08;109205;1270;22803;-77
2023/01/28 02:03:50;;;;;;;30.70;19.20;;;;;;;-3.39;98.17;96955.02;109192;1270;26417;-78
2023/01/28 02:06:20;;;;;;;;;;;;;;;-3.39;98.24;96959.02;109175;1270;24365;-77
2023/01/28 02:08:54;;;;;;;31.70;19.10;;;;;;;-3.40;98.18;96960.84;109009;1272;22475;-78
2023/01/28 02:11:30;;;;;;;31.70;20.00;;;;;;;-3.39;98.15;96961.21;109157;1264;22515;-77
2023/01/28 02:14:05;;;;;;;34.10;20.90;;;;;;;-3.40;98.20;96957.21;109191;1248;22560;-77
2023/01/28 02:16:38;;;;;;;31.90;19.70;;;;;;;-3.39;98.26;96962.48;109438;1270;22594;-77
2023/01/28 02:19:10;;;;;;;34.20;19.80;;;;;;;-3.37;98.20;96964.16;109514;1270;22521;-78
2023/01/28 02:22:04;;;;;;;32.50;19.60;;;;;;;-3.36;98.36;96959.98;109499;1267;22578;-78
2023/01/28 02:24:56;;;;;;;35.40;19.90;;;;;;;-3.34;98.47;96963.41;109560;1270;22525;-78
2023/01/28 02:27:35;;;;;;;40.60;23.30;;;;;;;-3.33;98.46;96964.13;109250;1251;23230;-78
2023/01/28 02:30:12;;;;;;;42.40;24.70;;;;;;;-3.31;98.30;96965.54;109230;1270;22503;-78
2023/01/28 02:32:53;;;;;;;38.00;23.20;;;;;;;-3.32;98.49;96957.08;109528;1264;22608;-78
2023/01/28 02:35:35;;;;;;;39.10;21.90;;;;;;;-3.31;98.39;96960.08;109542;1270;22521;-78
2023/01/28 02:38:12;;;;;;;41.90;23.60;;;;;;;-3.31;98.41;96956.17;109513;1269;22582;-78
2023/01/28 02:43:35;;;;;;;58.10;27.30;;;;;;;-3.30;98.26;96961.40;109051;1270;22564;-78
2023/01/28 02:49:26;;;;;;;89.50;32.50;;;;;;;-3.30;98.40;96960.65;109139;1254;22614;-78
2023/01/28 02:55:35;;;;;;;97.50;39.20;;;;;;;-3.29;98.45;96967.19;109286;1264;46601;-78
2023/01/28 02:58:17;;;;;;;43.50;22.50;;;;;;;-3.29;98.43;96960.73;109230;1248;22564;-77
2023/01/28 03:00:56;;;;;;;39.60;23.40;;;;;;;-3.30;98.47;96966.03;109600;1270;22646;-78
2023/01/28 03:03:36;;;;;;;35.90;20.90;;;;;;;-3.29;98.65;96960.85;109499;1264;22547;-78
2023/01/28 03:06:14;;;;;;;36.10;20.80;;;;;;;-3.29;98.51;96959.73;109522;1270;22518;-78
2023/01/28 03:37:36;;;;;;;41.60;22.90;;;;;;;-3.32;98.97;96960.95;109223;1269;24240;-78
2023/01/28 03:40:10;;;;;;;41.60;23.50;;;;;;;-3.32;98.66;96965.77;109218;1269;22517;-78
2023/01/28 03:42:41;;;;;;;35.70;21.70;;;;;;;-3.31;98.83;96963.03;109493;1270;23911;-77
2023/01/28 03:45:13;;;;;;;37.60;21.80;;;;;;;-3.31;98.82;96963.19;109402;1270;22553;-79
2023/01/28 03:47:44;;;;;;;37.10;21.80;;;;;;;-3.30;98.76;96960.69;109180;1270;22550;-78
2023/01/28 03:50:18;;;;;;;39.10;21.70;;;;;;;-3.29;98.72;96959.73;109236;1264;22622;-78
2023/01/28 03:52:49;;;;;;;36.60;21.80;;;;;;;-3.30;98.84;96951.91;109543;1269;26589;-78
2023/01/28 03:55:20;;;;;;;35.00;21.00;;;;;;;-3.30;98.75;96956.21;109588;1269;23245;-78
2023/01/28 03:57:51;;;;;;;34.30;21.00;;;;;;;-3.31;98.90;96959.95;109498;1270;22518;-77
2023/01/28 04:00:22;;;;;;;36.20;21.90;;;;;;;-3.32;98.68;96962.98;109204;1270;24313;-77
2023/01/28 04:02:53;;;;;;;32.50;20.70;;;;;;;-3.33;98.96;96964.13;109143;1264;22521;-77
2023/01/28 04:05:24;;;;;;;32.20;19.70;;;;;;;-3.35;98.80;96966.18;109161;1270;22512;-78
2023/01/28 04:07:57;;;;;;;31.80;19.80;;;;;;;-3.37;98.74;96969.79;109086;1264;22634;-78
2023/01/28 04:10:28;;;;;;;32.00;20.60;;;;;;;-3.38;98.73;96964.03;109457;1269;24238;-78
2023/01/28 04:13:01;;;;;;;33.60;19.90;;;;;;;-3.38;98.74;96969.61;109102;1270;22685;-77
2023/01/28 04:15:31;;;;;;;32.70;20.20;;;;;;;-3.39;98.77;96972.42;109117;1263;23637;-78
2023/01/28 04:18:02;;;;;;;29.10;18.50;;;;;;;-3.40;98.55;96969.69;109152;1270;25239;-78
2023/01/28 04:20:33;;;;;;;30.50;20.00;;;;;;;-3.42;98.54;96976.80;109153;1270;22521;-77
2023/01/28 04:23:05;;;;;;;30.70;19.20;;;;;;;-3.42;98.33;96980.80;109157;1270;22540;-77
2023/01/28 04:25:36;;;;;;;28.90;18.80;;;;;;;-3.42;98.41;96974.92;109149;1270;23671;-78
2023/01/28 04:28:08;;;;;;;30.40;19.50;;;;;;;-3.42;98.65;96976.44;109109;1270;25142;-78
2023/01/28 04:30:39;;;;;;;31.70;19.00;;;;;;;-3.41;98.44;96976.38;109058;1270;22562;-78
2023/01/28 04:33:11;;;;;;;30.60;19.70;;;;;;;-3.41;98.48;96980.02;109505;1270;22552;-78
2023/01/28 04:35:42;;;;;;;32.00;19.50;;;;;;;-3.41;98.55;96981.40;109498;1264;24033;-79
2023/01/28 04:38:13;;;;;;;30.10;18.40;;;;;;;-3.42;98.49;96983.38;109499;1270;24237;-78
2023/01/28 04:40:44;;;;;;;30.50;19.90;;;;;;;-3.42;98.29;96984.94;109536;1269;22579;-78
2023/01/28 04:43:15;;;;;;;30.00;18.00;;;;;;;-3.44;98.20;96989.47;109395;1264;23787;-78
2023/01/28 04:45:46;;;;;;;32.50;20.00;;;;;;;-3.43;98.36;96992.55;109416;1263;23604;-78
2023/01/28 04:48:17;;;;;;;31.60;19.50;;;;;;;-3.44;98.54;96993.49;109470;1270;25259;-78
2023/01/28 04:50:48;;;;;;;32.00;20.70;;;;;;;-3.44;98.43;96999.04;109487;1270;22559;-78
2023/01/28 04:53:19;;;;;;;35.00;21.80;;;;;;;-3.45;98.34;96999.81;109456;1270;22640;-78
2023/01/28 04:55:50;;;;;;;28.20;18.40;;;;;;;-3.45;98.41;96998.23;109410;1263;22539;-78
2023/01/28 04:58:21;;;;;;;32.50;19.40;;;;;;;-3.44;98.63;96997.64;109522;1263;22520;-78
2023/01/28 05:00:56;;;;;;;34.50;18.70;;;;;;;-3.45;98.63;96999.98;109477;1264;22510;-79
2023/01/28 05:03:28;;;;;;;31.70;19.00;;;;;;;-3.46;98.50;97004.20;109530;1270;23839;-78
2023/01/28 05:06:00;;;;;;;31.30;19.70;;;;;;;-3.47;98.58;97005.19;109296;1271;22524;-78
2023/01/28 05:08:31;;;;;;;31.50;18.90;;;;;;;-3.46;98.46;97007.75;109431;1269;22651;-79
2023/01/28 05:11:02;;;;;;;30.60;19.20;;;;;;;-3.48;98.48;97005.81;109509;1269;23946;-78
2023/01/28 05:13:33;;;;;;;32.80;19.10;;;;;;;-3.47;98.50;97011.23;109426;1270;22543;-78
2023/01/28 05:16:04;;;;;;;32.90;19.90;;;;;;;-3.46;98.61;97013.08;109424;1270;22736;-78
2023/01/28 05:18:35;;;;;;;34.60;21.10;;;;;;;-3.46;98.66;97009.42;109358;1270;25259;-78
2023/01/28 05:21:07;;;;;;;31.30;19.60;;;;;;;-3.45;98.62;97009.02;109468;1270;22796;-79
2023/01/28 05:23:38;;;;;;;31.50;18.70;;;;;;;-3.46;98.68;97008.03;109414;1269;152448;-79
2023/01/28 05:26:09;;;;;;;29.90;18.80;;;;;;;-3.47;98.61;97005.26;109439;1266;25947;-78
2023/01/28 05:28:40;;;;;;;30.60;17.90;;;;;;;-3.48;98.50;97005.89;109429;1263;24180;-78
2023/01/28 05:31:11;;;;;;;31.90;18.70;;;;;;;-3.48;98.59;97004.21;109489;1270;22537;-78
2023/01/28 05:33:42;;;;;;;30.60;17.80;;;;;;;-3.50;98.57;97006.63;109466;1263;22572;-78
2023/01/28 05:36:13;;;;;;;31.20;19.10;;;;;;;-3.50;98.58;97011.48;109471;1263;22572;-78
2023/01/28 05:38:46;;;;;;;28.80;17.40;;;;;;;-3.49;98.53;97013.13;109134;1264;22516;-78
2023/01/28 05:41:17;;;;;;;30.60;18.00;;;;;;;-3.49;98.70;97019.19;109452;1264;23305;-78
2023/01/28 05:43:48;;;;;;;27.60;17.80;;;;;;;-3.49;98.67;97022.79;109309;1270;25429;-78
2023/01/28 05:46:19;;;;;;;32.30;21.10;;;;;;;-3.49;98.51;97020.03;109315;1264;25674;-78
2023/01/28 05:48:51;;;;;;;75.30;35.00;;;;;;;-3.50;98.79;97019.79;109446;1270;22596;-78
2023/01/28 05:51:24;;;;;;;65.70;33.30;;;;;;;-3.50;98.59;97021.73;109513;1270;24378;-78
2023/01/28 05:53:55;;;;;;;59.70;30.20;;;;;;;-3.50;98.48;97021.20;109482;1270;23820;-78
2023/01/28 05:56:26;;;;;;;59.20;31.90;;;;;;;-3.51;98.59;97025.59;109431;1270;25258;-78
2023/01/28 05:58:59;;;;;;;42.90;24.90;;;;;;;-3.50;98.31;97028.59;109475;1270;22535;-78
2023/01/28 06:01:30;;;;;;;80.70;34.00;;;;;;;-3.50;98.47;97029.44;109488;1267;23845;-78
2023/01/28 06:04:01;;;;;;;54.50;27.40;;;;;;;-3.50;98.38;97030.64;109480;1270;22540;-78
2023/01/28 06:06:32;;;;;;;51.80;25.40;;;;;;;-3.52;98.42;97031.41;109421;1263;23700;-78
2023/01/28 06:09:04;;;;;;;41.90;21.70;;;;;;;-3.53;98.22;97033.27;109440;1263;22556;-78
2023/01/28 06:11:34;;;;;;;35.20;21.20;;;;;;;-3.55;98.06;97035.01;109408;1263;23746;-78
2023/01/28 06:14:05;;;;;;;54.10;25.00;;;;;;;-3.55;98.24;97035.73;109459;1263;22527;-78
2023/01/28 06:16:36;;;;;;;36.40;21.40;;;;;;;-3.55;98.26;97039.03;109405;1270;22523;-78
2023/01/28 06:19:07;;;;;;;40.80;23.80;;;;;;;-3.56;98.25;97044.24;109497;1270;22516;-78
2023/01/28 06:21:42;;;;;;;33.80;19.30;;;;;;;-3.56;98.35;97043.12;109450;1270;22633;-78
2023/01/28 06:24:13;;;;;;;34.70;20.20;;;;;;;-3.57;98.23;97048.05;109535;1263;23970;-78
2023/01/28 06:26:44;;;;;;;36.60;20.60;;;;;;;-3.56;98.25;97053.69;109392;1266;24247;-78
2023/01/28 06:29:15;;;;;;;43.10;22.90;;;;;;;-3.56;98.25;97057.98;109397;1270;22518;-78
2023/01/28 06:31:46;;;;;;;35.50;22.10;;;;;;;-3.57;98.42;97064.92;109465;1270;22510;-78
2023/01/28 06:34:17;;;;;;;30.20;18.30;;;;;;;-3.55;98.43;97068.77;109127;1263;26493;-79
2023/01/28 06:36:49;;;;;;;27.90;16.70;;;;;;;-3.55;98.17;97067.92;109472;1263;22525;-79
2023/01/28 06:39:21;;;;;;;26.30;16.00;;;;;;;-3.55;98.20;97070.93;109500;1269;22630;-78
2023/01/28 06:41:52;;;;;;;27.00;15.60;;;;;;;-3.54;98.28;97073.80;109483;1264;22652;-79
2023/01/28 06:44:23;;;;;;;27.50;15.40;;;;;;;-3.54;98.21;97076.39;109385;1264;22571;-76
2023/01/28 06:46:54;;;;;;;27.50;17.50;;;;;;;-3.55;98.05;97085.95;109404;1270;44034;-78
2023/01/28 06:49:26;;;;;;;26.30;15.60;;;;;;;-3.52;98.11;97089.83;109158;1270;22520;-77
2023/01/28 06:51:57;;;;;;;24.50;15.40;;;;;;;-3.51;98.21;97091.48;109173;1270;25922;-78
2023/01/28 06:54:28;;;;;;;27.40;16.40;;;;;;;-3.51;98.22;97094.69;109145;1269;22560;-77
2023/01/28 06:56:59;;;;;;;24.20;15.30;;;;;;;-3.51;98.09;97097.64;109078;1267;28108;-77
2023/01/28 06:59:30;;;;;;;25.20;14.80;;;;;;;-3.51;98.07;97095.92;109128;1270;22535;-77
2023/01/28 07:02:04;;;;;;;24.70;16.10;;;;;;;-3.50;98.01;97099.73;109195;1267;24208;-77
2023/01/28 07:04:37;;;;;;;26.50;15.50;;;;;;;-3.48;97.97;97099.51;109186;1250;22510;-77
2023/01/28 07:07:08;;;;;;;23.30;15.50;;;;;;;-3.47;98.20;97101.83;109129;1267;22531;-77
2023/01/28 07:09:39;;;;;;;26.20;15.50;;;;;;;-3.47;98.03;97103.35;109141;1263;23752;-77
2023/01/28 07:12:11;;;;;;;26.00;16.10;;;;;;;-3.44;98.01;97106.33;109139;1270;25447;-77
2023/01/28 07:14:42;;;;;;;30.20;17.70;;;;;;;-3.42;98.01;97107.27;109161;1263;22526;-77
2023/01/28 07:17:13;;;;;;;26.00;16.80;;;;;;;-3.40;97.87;97110.69;109117;1263;23800;-77
2023/01/28 07:19:46;;;;;;;32.70;19.30;;;;;;;-3.36;98.01;97115.95;109165;1270;25412;-79
2023/01/28 07:22:22;;;;;;;31.30;18.80;;;;;;;-3.33;98.04;97118.50;109487;1267;22549;-78
2023/01/28 07:24:54;;;;;;;35.40;21.60;;;;;;;-3.32;98.00;97116.60;109455;1263;22539;-79
2023/01/28 07:27:25;;;;;;;31.80;20.30;;;;;;;-3.32;97.87;97116.05;109449;1263;25428;-79
2023/01/28 07:29:56;;;;;;;38.90;20.60;;;;;;;-3.32;97.54;97119.39;109467;1263;22521;-79
2023/01/28 07:32:28;;;;;;;36.70;20.70;;;;;;;-3.30;97.72;97123.48;109497;1247;23010;-79
2023/01/28 07:34:59;;;;;;;40.70;23.30;;;;;;;-3.27;97.59;97121.08;109494;1263;24225;-79
2023/01/28 07:37:30;;;;;;;30.30;18.80;;;;;;;-3.25;97.71;97122.54;109427;1267;22517;-79
2023/01/28 07:40:01;;;;;;;29.90;17.10;;;;;;;-3.23;97.67;97125.63;109451;1270;26765;-79
2023/01/28 07:42:32;;;;;;;28.80;18.10;;;;;;;-3.22;97.65;97128.31;109398;1263;24286;-78
2023/01/28 07:45:05;;;;;;;29.50;17.50;;;;;;;-3.19;97.54;97129.30;109396;1267;23858;-79
2023/01/28 07:47:36;;;;;;;29.10;16.90;;;;;;;-3.17;97.44;97126.13;109446;1270;22521;-79
2023/01/28 07:50:09;;;;;;;26.50;15.40;;;;;;;-3.18;97.37;97132.44;109447;1263;22541;-79
2023/01/28 07:52:43;;;;;;;25.30;15.10;;;;;;;-3.20;97.19;97136.48;109466;1270;24574;-79
2023/01/28 07:55:15;;;;;;;23.70;14.30;;;;;;;-3.25;96.94;97140.55;109383;1267;26595;-79
2023/01/28 07:57:59;;;;;;;29.90;16.00;;;;;;;-3.28;96.86;97138.83;109466;1270;25294;-79
2023/01/28 08:00:35;;;;;;;27.60;17.00;;;;;;;-3.30;96.84;97141.39;109453;1270;23955;-79
2023/01/28 08:03:13;;;;;;;27.40;16.50;;;;;;;-3.30;96.88;97145.94;109473;1270;22517;-79
2023/01/28 08:05:47;;;;;;;32.50;19.60;;;;;;;-3.29;96.80;97147.55;109439;1263;22510;-78
2023/01/28 08:08:19;;;;;;;25.50;15.50;;;;;;;-3.27;96.78;97146.13;109462;1263;22519;-78
2023/01/28 08:10:52;;;;;;;19.90;12.80;;;;;;;-3.26;96.84;97147.10;109549;1269;25430;-78
2023/01/28 08:13:25;;;;;;;19.20;11.90;;;;;;;-3.27;96.90;97144.02;109465;1263;23869;-78
2023/01/28 08:15:59;;;;;;;20.00;12.10;;;;;;;-3.27;96.80;97144.61;109419;1270;22514;-78
2023/01/28 08:18:31;;;;;;;19.80;11.90;;;;;;;-3.27;96.40;97147.02;109475;1270;22643;-78
2023/01/28 08:21:04;;;;;;;19.00;12.20;;;;;;;-3.30;96.34;97146.65;109474;1270;22534;-77
2023/01/28 08:23:36;;;;;;;20.80;11.60;;;;;;;-3.31;96.19;97146.02;109434;1269;24451;-77
2023/01/28 08:26:09;;;;;;;18.60;11.90;;;;;;;-3.29;96.14;97144.44;109449;1269;25449;-78
2023/01/28 08:28:42;;;;;;;18.20;11.50;;;;;;;-3.25;96.37;97146.11;109444;1270;25303;-78
2023/01/28 08:31:13;;;;;;;18.50;10.80;;;;;;;-3.22;96.48;97147.14;109386;1271;22510;-78
2023/01/28 08:33:44;;;;;;;21.10;11.50;;;;;;;-3.20;96.32;97149.80;109434;1270;22640;-78
2023/01/28 08:36:16;;;;;;;17.90;11.60;;;;;;;-3.21;96.09;97151.42;109142;1266;22563;-77
2023/01/28 08:38:52;;;;;;;18.80;12.00;;;;;;;-3.23;95.77;97152.77;109103;1267;22545;-77
2023/01/28 08:41:24;;;;;;;18.80;11.00;;;;;;;-3.22;95.94;97152.09;109106;1270;22514;-78
2023/01/28 08:43:56;;;;;;;18.20;11.70;;;;;;;-3.20;96.00;97152.23;109048;1250;22520;-78
2023/01/28 08:46:27;;;;;;;21.20;12.60;;;;;;;-3.17;95.79;97150.84;109086;1270;44702;-78
2023/01/28 08:48:59;;;;;;;46.00;20.30;;;;;;;-3.16;95.54;97152.57;109139;1263;22544;-78
2023/01/28 08:51:31;;;;;;;54.00;23.10;;;;;;;-3.11;96.05;97153.75;109071;1263;22571;-77
2023/01/28 08:54:02;;;;;;;30.70;16.30;;;;;;;-3.06;95.82;97152.63;109113;1269;22526;-78
2023/01/28 08:56:33;;;;;;;25.70;14.80;;;;;;;-3.03;95.81;97157.45;109061;1270;24205;-78
2023/01/28 08:59:05;;;;;;;22.70;13.10;;;;;;;-3.00;95.79;97153.66;109106;1270;22786;-78
2023/01/28 09:01:37;;;;;;;25.30;15.50;;;;;;;-2.95;95.73;97158.48;109111;1270;25265;-78
2023/01/28 09:04:08;;;;;;;24.50;14.80;;;;;;;-2.89;95.72;97159.35;109136;1270;22518;-78
2023/01/28 09:06:40;;;;;;;18.50;12.00;;;;;;;-2.88;95.54;97160.91;109117;1270;22623;-78
2023/01/28 09:09:11;;;;;;;20.40;13.00;;;;;;;-2.86;95.50;97165.73;109113;1270;22517;-78
2023/01/28 09:11:42;;;;;;;20.60;14.10;;;;;;;-2.82;95.26;97169.89;109119;1263;22614;-78
2023/01/28 09:14:13;;;;;;;16.40;10.00;;;;;;;-2.76;95.05;97169.61;109130;1270;24271;-78
2023/01/28 09:16:45;;;;;;;17.00;10.70;;;;;;;-2.77;94.91;97171.29;109100;1263;22582;-78
2023/01/28 09:19:16;;;;;;;19.40;11.60;;;;;;;-2.81;94.63;97171.71;109148;1263;22515;-77
2023/01/28 09:21:47;;;;;;;17.30;11.60;;;;;;;-2.78;94.63;97174.12;109103;1270;24146;-78
2023/01/28 09:24:18;;;;;;;18.00;11.80;;;;;;;-2.74;94.76;97171.33;109171;1267;22529;-77
2023/01/28 09:26:51;;;;;;;17.20;11.20;;;;;;;-2.70;94.80;97172.77;109140;1270;22585;-78
2023/01/28 09:29:23;;;;;;;17.70;11.20;;;;;;;-2.66;94.77;97174.95;109152;1270;22521;-77
2023/01/28 09:31:54;;;;;;;19.40;12.10;;;;;;;-2.67;94.22;97174.33;109474;1263;22515;-78
2023/01/28 09:34:25;;;;;;;15.70;11.10;;;;;;;-2.70;94.12;97176.39;109438;1270;22552;-78
2023/01/28 09:36:56;;;;;;;17.50;10.70;;;;;;;-2.63;94.43;97176.34;109333;1270;26112;-78
2023/01/28 09:39:28;;;;;;;16.30;10.70;;;;;;;-2.58;94.66;97175.66;109394;1263;22532;-78
2023/01/28 09:42:11;;;;;;;18.20;11.00;;;;;;;-2.55;94.30;97174.34;109455;1263;22623;-78
2023/01/28 09:44:58;;;;;;;18.40;11.40;;;;;;;-2.51;94.24;97172.41;109396;1263;22510;-78
2023/01/28 09:47:34;;;;;;;16.30;10.30;;;;;;;-2.44;94.09;97173.97;109452;1263;22722;-78
2023/01/28 09:50:09;;;;;;;16.80;10.90;;;;;;;-2.35;94.22;97172.91;109446;1263;22645;-78
2023/01/28 09:52:42;;;;;;;16.80;10.70;;;;;;;-2.28;94.20;97169.55;109361;1263;22625;-78
2023/01/28 09:55:22;;;;;;;21.00;12.70;;;;;;;-2.22;94.01;97165.39;109445;1270;22520;-78
2023/01/28 09:57:56;;;;;;;19.80;13.10;;;;;;;-2.21;93.44;97162.45;109496;1270;22583;-78
2023/01/28 10:00:33;;;;;;;19.00;11.20;;;;;;;-2.17;93.30;97165.48;109436;1270;22546;-78
2023/01/28 10:03:28;;;;;;;18.10;11.60;;;;;;;-2.12;93.56;97161.33;109443;1263;22661;-78
2023/01/28 10:06:15;;;;;;;18.20;11.60;;;;;;;-2.04;93.41;97161.13;109399;1270;29967;-79
2023/01/28 10:09:06;;;;;;;17.30;10.70;;;;;;;-2.00;93.25;97158.23;109468;1263;25459;-78
2023/01/28 10:11:51;;;;;;;17.40;11.30;;;;;;;-2.02;92.73;97158.46;109451;1263;23789;-79
2023/01/28 10:14:36;;;;;;;17.30;10.30;;;;;;;-2.01;92.83;97155.72;109430;1270;22521;-79
2023/01/28 10:17:15;;;;;;;18.10;11.00;;;;;;;-1.95;92.93;97157.03;109392;1270;22518;-79
2023/01/28 10:19:51;;;;;;;16.70;11.40;;;;;;;-1.92;93.08;97157.96;109437;1270;22559;-79
2023/01/28 10:22:27;;;;;;;17.00;11.30;;;;;;;-1.87;92.87;97158.52;109376;1264;22685;-79
2023/01/28 10:25:05;;;;;;;18.70;10.90;;;;;;;-1.82;92.70;97160.70;109449;1268;26440;-78
2023/01/28 10:27:39;;;;;;;15.30;11.00;;;;;;;-1.75;92.61;97159.28;109364;1270;22634;-79
2023/01/28 10:30:19;;;;;;;17.80;11.80;;;;;;;-1.70;92.30;97159.27;109441;1263;25026;-78
2023/01/28 10:32:56;;;;;;;18.10;11.50;;;;;;;-1.69;92.47;97156.73;109468;1270;23871;-79
2023/01/28 10:35:28;;;;;;;16.70;12.00;;;;;;;-1.69;92.08;97158.05;109483;1270;27838;-80
2023/01/28 10:38:06;;;;;;;17.30;10.10;;;;;;;-1.66;92.36;97158.44;109466;1263;22520;-79
2023/01/28 10:40:41;;;;;;;14.80;10.00;;;;;;;-1.69;91.90;97152.98;109475;1268;22523;-79
2023/01/28 10:43:12;;;;;;;15.50;9.90;;;;;;;-1.69;91.75;97154.31;109382;1270;22540;-79
2023/01/28 10:45:52;;;;;;;14.90;10.00;;;;;;;-1.71;91.50;97155.14;109377;1263;23672;-79
2023/01/28 10:48:26;;;;;;;16.20;11.20;;;;;;;-1.71;91.34;97152.39;109504;1263;22526;-79
2023/01/28 10:51:00;;;;;;;15.30;10.90;;;;;;;-1.71;91.35;97155.35;109481;1270;22531;-79
2023/01/28 10:53:40;;;;;;;16.30;11.20;;;;;;;-1.70;91.49;97154.35;109502;1263;23915;-79
2023/01/28 10:56:14;;;;;;;15.80;9.90;;;;;;;-1.73;91.27;97152.13;109380;1270;22541;-79
2023/01/28 10:59:00;;;;;;;16.50;10.20;;;;;;;-1.74;91.17;97149.20;109468;1270;22619;-79
2023/01/28 11:01:45;;;;;;;16.00;10.70;;;;;;;-1.70;91.24;97149.59;109508;1263;22521;-79
2023/01/28 11:04:23;;;;;;;15.60;10.50;;;;;;;-1.68;91.42;97148.60;109463;1267;22536;-79
2023/01/28 11:07:00;;;;;;;14.80;9.60;;;;;;;-1.66;91.09;97152.29;109421;1267;24583;-79
2023/01/28 11:09:33;;;;;;;14.30;9.20;;;;;;;-1.67;90.88;97149.20;109446;1270;25262;-79
2023/01/28 11:12:19;;;;;;;15.90;9.80;;;;;;;-1.71;90.88;97149.11;109440;1270;22523;-79
2023/01/28 11:14:54;;;;;;;14.70;9.70;;;;;;;-1.72;90.56;97147.38;109441;1263;22564;-79
2023/01/28 11:17:28;;;;;;;16.70;10.40;;;;;;;-1.75;90.68;97144.56;109444;1270;22515;-79
2023/01/28 11:20:09;;;;;;;17.10;10.60;;;;;;;-1.74;90.44;97143.57;109488;1270;22527;-79
2023/01/28 11:22:42;;;;;;;22.70;15.30;;;;;;;-1.68;90.62;97139.23;109453;1270;22513;-79
2023/01/28 11:25:23;;;;;;;31.20;18.30;;;;;;;-1.63;90.61;97142.30;109494;1248;22553;-79
2023/01/28 11:27:56;;;;;;;23.40;14.90;;;;;;;-1.63;90.55;97139.98;109501;1263;22524;-79
2023/01/28 11:30:30;;;;;;;17.50;11.80;;;;;;;-1.60;90.38;97139.23;109467;1263;25319;-79
2023/01/28 11:33:07;;;;;;;20.30;13.80;;;;;;;-1.53;90.60;97137.04;109509;1263;24914;-79
2023/01/28 11:35:38;;;;;;;28.10;17.80;;;;;;;-1.49;90.45;97133.77;109472;1270;24231;-79
2023/01/28 11:38:20;;;;;;;19.20;13.20;;;;;;;-1.43;90.27;97136.85;109360;1270;22530;-79
2023/01/28 11:40:59;;;;;;;19.40;12.80;;;;;;;-1.34;90.19;97138.09;109536;1269;22576;-79
2023/01/28 11:43:31;;;;;;;17.30;11.40;;;;;;;-1.30;90.08;97133.81;109399;1263;22522;-79
2023/01/28 11:46:17;;;;;;;20.20;13.70;;;;;;;-1.30;89.92;97130.86;109411;1263;24157;-79
2023/01/28 11:49:02;;;;;;;21.00;12.00;;;;;;;-1.32;89.74;97132.45;109463;1270;22526;-79
2023/01/28 11:51:42;;;;;;;20.20;12.90;;;;;;;-1.33;89.25;97132.52;109371;1270;22527;-79
2023/01/28 11:54:33;;;;;;;26.50;16.80;;;;;;;-1.39;89.50;97131.81;109461;1270;22623;-79
2023/01/28 11:57:21;;;;;;;24.50;16.40;;;;;;;-1.39;89.39;97129.30;109450;1270;36212;-79
2023/01/28 12:00:22;;;;;;;21.30;14.80;;;;;;;-1.38;89.70;97132.30;109355;1269;22538;-79
2023/01/28 12:03:01;;;;;;;18.90;12.00;;;;;;;-1.40;89.28;97131.40;109447;1270;25455;-79
2023/01/28 12:05:51;;;;;;;17.20;12.20;;;;;;;-1.50;89.02;97130.25;109431;1270;23268;-80
2023/01/28 12:08:29;;;;;;;19.50;12.20;;;;;;;-1.55;89.15;97130.17;109367;1269;22514;-79
2023/01/28 12:14:24;;;;;;;22.30;13.70;;;;;;;-1.61;89.47;97137.32;109396;1270;22559;-79
2023/01/28 12:17:08;;;;;;;21.50;13.50;;;;;;;-1.64;89.58;97136.30;109307;1270;68008;-79
2023/01/28 12:19:50;;;;;;;23.40;14.00;;;;;;;-1.70;89.09;97132.45;109473;1268;24436;-79
2023/01/28 12:22:45;;;;;;;18.60;12.80;;;;;;;-1.75;89.46;97130.77;109359;1270;22559;-79